sensor_id;sensor_type;location;lat;lon;timestamp;P1;durP1;ratioP1;P2;durP2;ratioP2
9188;SDS011;34313;50.780;6.084;2023-04-16T00:01:22;5.53;;;2.43;;
9188;SDS011;34313;50.780;6.084;2023-04-16T00:03:47;4.07;;;3.40;;
9188;SDS011;34313;50.780;6.084;2023-04-16T00:06:12;3.20;;;2.90;;
9188;SDS011;34313;50.780;6.084;2023-04-16T00:08:38;3.73;;;3.00;;
9188;SDS011;34313;50.780;6.084;2023-04-16T00:11:04;6.30;;;3.83;;
9188;SDS011;34313;50.780;6.084;2023-04-16T00:13:30;4.30;;;3.20;;
9188;SDS011;34313;50.780;6.084;2023-04-16T00:15:55;4.83;;;3.40;;
9188;SDS011;34313;50.780;6.084;2023-04-16T00:18:21;5.43;;;3.30;;
9188;SDS011;34313;50.780;6.084;2023-04-16T00:20:46;4.17;;;3.20;;
9188;SDS011;34313;50.780;6.084;2023-04-16T00:23:12;4.67;;;3.70;;
9188;SDS011;34313;50.780;6.084;2023-04-16T00:25:37;4.40;;;3.10;;
9188;SDS011;34313;50.780;6.084;2023-04-16T00:28:04;5.50;;;4.10;;
9188;SDS011;34313;50.780;6.084;2023-04-16T00:30:29;6.87;;;3.80;;
9188;SDS011;34313;50.780;6.084;2023-04-16T00:32:55;4.03;;;3.60;;
9188;SDS011;34313;50.780;6.084;2023-04-16T00:35:20;4.10;;;3.23;;
9188;SDS011;34313;50.780;6.084;2023-04-16T00:37:45;5.03;;;3.40;;
9188;SDS011;34313;50.780;6.084;2023-04-16T00:40:10;9.20;;;4.77;;
9188;SDS011;34313;50.780;6.084;2023-04-16T00:42:36;7.00;;;4.40;;
9188;SDS011;34313;50.780;6.084;2023-04-16T00:45:02;4.33;;;3.63;;
9188;SDS011;34313;50.780;6.084;2023-04-16T00:47:28;5.50;;;4.20;;
9188;SDS011;34313;50.780;6.084;2023-04-16T00:49:55;4.67;;;3.90;;
9188;SDS011;34313;50.780;6.084;2023-04-16T00:52:20;6.23;;;4.83;;
9188;SDS011;34313;50.780;6.084;2023-04-16T00:54:45;7.70;;;4.43;;
9188;SDS011;34313;50.780;6.084;2023-04-16T00:57:11;6.40;;;4.63;;
9188;SDS011;34313;50.780;6.084;2023-04-16T00:59:38;6.93;;;4.70;;
9188;SDS011;34313;50.780;6.084;2023-04-16T01:02:03;9.90;;;5.70;;
9188;SDS011;34313;50.780;6.084;2023-04-16T01:04:28;13.53;;;5.90;;
9188;SDS011;34313;50.780;6.084;2023-04-16T01:06:54;7.97;;;5.97;;
9188;SDS011;34313;50.780;6.084;2023-04-16T01:09:20;9.40;;;6.77;;
9188;SDS011;34313;50.780;6.084;2023-04-16T01:11:45;13.87;;;6.30;;
9188;SDS011;34313;50.780;6.084;2023-04-16T01:14:11;17.80;;;6.90;;
9188;SDS011;34313;50.780;6.084;2023-04-16T01:16:36;9.83;;;7.50;;
9188;SDS011;34313;50.780;6.084;2023-04-16T01:19:01;19.63;;;7.30;;
9188;SDS011;34313;50.780;6.084;2023-04-16T01:21:27;11.70;;;7.63;;
9188;SDS011;34313;50.780;6.084;2023-04-16T01:23:52;9.13;;;7.37;;
9188;SDS011;34313;50.780;6.084;2023-04-16T01:26:17;12.23;;;7.50;;
9188;SDS011;34313;50.780;6.084;2023-04-16T01:28:43;20.20;;;8.27;;
9188;SDS011;34313;50.780;6.084;2023-04-16T01:31:08;12.63;;;8.10;;
9188;SDS011;34313;50.780;6.084;2023-04-16T01:33:33;14.07;;;8.23;;
9188;SDS011;34313;50.780;6.084;2023-04-16T01:35:58;14.43;;;7.50;;
9188;SDS011;34313;50.780;6.084;2023-04-16T01:38:24;10.70;;;8.03;;
9188;SDS011;34313;50.780;6.084;2023-04-16T01:40:49;17.60;;;9.20;;
9188;SDS011;34313;50.780;6.084;2023-04-16T01:43:14;15.40;;;9.33;;
9188;SDS011;34313;50.780;6.084;2023-04-16T01:45:40;17.80;;;8.97;;
9188;SDS011;34313;50.780;6.084;2023-04-16T01:48:05;12.23;;;8.53;;
9188;SDS011;34313;50.780;6.084;2023-04-16T01:50:31;11.73;;;7.93;;
9188;SDS011;34313;50.780;6.084;2023-04-16T01:52:57;13.57;;;8.60;;
9188;SDS011;34313;50.780;6.084;2023-04-16T01:55:22;15.67;;;9.37;;
9188;SDS011;34313;50.780;6.084;2023-04-16T01:57:47;21.73;;;9.53;;
9188;SDS011;34313;50.780;6.084;2023-04-16T02:00:13;14.33;;;8.63;;
9188;SDS011;34313;50.780;6.084;2023-04-16T02:02:38;15.20;;;9.50;;
9188;SDS011;34313;50.780;6.084;2023-04-16T02:05:04;16.30;;;10.13;;
9188;SDS011;34313;50.780;6.084;2023-04-16T02:07:29;17.80;;;10.23;;
9188;SDS011;34313;50.780;6.084;2023-04-16T02:09:55;17.60;;;9.27;;
9188;SDS011;34313;50.780;6.084;2023-04-16T02:12:22;14.50;;;9.03;;
9188;SDS011;34313;50.780;6.084;2023-04-16T02:14:47;13.17;;;9.87;;
9188;SDS011;34313;50.780;6.084;2023-04-16T02:17:13;13.53;;;9.00;;
9188;SDS011;34313;50.780;6.084;2023-04-16T02:19:39;11.47;;;8.57;;
9188;SDS011;34313;50.780;6.084;2023-04-16T02:22:04;14.47;;;8.80;;
9188;SDS011;34313;50.780;6.084;2023-04-16T02:24:30;15.13;;;9.53;;
9188;SDS011;34313;50.780;6.084;2023-04-16T02:26:55;16.47;;;9.97;;
9188;SDS011;34313;50.780;6.084;2023-04-16T02:29:20;13.67;;;9.73;;
9188;SDS011;34313;50.780;6.084;2023-04-16T02:31:46;12.63;;;9.00;;
9188;SDS011;34313;50.780;6.084;2023-04-16T02:34:12;10.70;;;9.00;;
9188;SDS011;34313;50.780;6.084;2023-04-16T02:36:38;15.30;;;8.87;;
9188;SDS011;34313;50.780;6.084;2023-04-16T02:39:03;12.77;;;10.20;;
9188;SDS011;34313;50.780;6.084;2023-04-16T02:41:29;11.40;;;8.60;;
9188;SDS011;34313;50.780;6.084;2023-04-16T02:43:54;12.90;;;10.27;;
9188;SDS011;34313;50.780;6.084;2023-04-16T02:46:20;12.40;;;10.10;;
9188;SDS011;34313;50.780;6.084;2023-04-16T02:48:45;17.20;;;9.73;;
9188;SDS011;34313;50.780;6.084;2023-04-16T02:51:11;11.80;;;9.20;;
9188;SDS011;34313;50.780;6.084;2023-04-16T02:53:36;13.90;;;10.27;;
9188;SDS011;34313;50.780;6.084;2023-04-16T02:56:01;14.43;;;10.20;;
9188;SDS011;34313;50.780;6.084;2023-04-16T02:58:27;12.77;;;10.30;;
9188;SDS011;34313;50.780;6.084;2023-04-16T03:00:52;13.10;;;9.63;;
9188;SDS011;34313;50.780;6.084;2023-04-16T03:03:19;18.80;;;11.30;;
9188;SDS011;34313;50.780;6.084;2023-04-16T03:05:45;17.20;;;11.23;;
9188;SDS011;34313;50.780;6.084;2023-04-16T03:08:10;22.33;;;11.27;;
9188;SDS011;34313;50.780;6.084;2023-04-16T03:10:36;16.97;;;11.40;;
9188;SDS011;34313;50.780;6.084;2023-04-16T03:13:01;20.37;;;11.27;;
9188;SDS011;34313;50.780;6.084;2023-04-16T03:15:27;14.47;;;12.07;;
9188;SDS011;34313;50.780;6.084;2023-04-16T03:17:53;12.07;;;10.00;;
9188;SDS011;34313;50.780;6.084;2023-04-16T03:20:19;17.87;;;11.73;;
9188;SDS011;34313;50.780;6.084;2023-04-16T03:22:44;16.93;;;11.67;;
9188;SDS011;34313;50.780;6.084;2023-04-16T03:25:11;18.93;;;11.60;;
9188;SDS011;34313;50.780;6.084;2023-04-16T03:27:36;16.70;;;11.23;;
9188;SDS011;34313;50.780;6.084;2023-04-16T03:30:03;13.53;;;10.87;;
9188;SDS011;34313;50.780;6.084;2023-04-16T03:32:30;16.50;;;12.63;;
9188;SDS011;34313;50.780;6.084;2023-04-16T03:34:55;14.97;;;12.30;;
9188;SDS011;34313;50.780;6.084;2023-04-16T03:37:21;16.70;;;11.87;;
9188;SDS011;34313;50.780;6.084;2023-04-16T03:39:46;15.27;;;11.67;;
9188;SDS011;34313;50.780;6.084;2023-04-16T03:42:12;20.30;;;12.20;;
9188;SDS011;34313;50.780;6.084;2023-04-16T03:44:37;19.00;;;12.43;;
9188;SDS011;34313;50.780;6.084;2023-04-16T03:47:02;18.93;;;12.87;;
9188;SDS011;34313;50.780;6.084;2023-04-16T03:49:28;19.03;;;12.40;;
9188;SDS011;34313;50.780;6.084;2023-04-16T03:51:53;17.73;;;12.43;;
9188;SDS011;34313;50.780;6.084;2023-04-16T03:54:18;17.23;;;13.17;;
9188;SDS011;34313;50.780;6.084;2023-04-16T03:56:43;17.80;;;11.90;;
9188;SDS011;34313;50.780;6.084;2023-04-16T03:59:09;17.30;;;12.73;;
9188;SDS011;34313;50.780;6.084;2023-04-16T04:01:34;26.17;;;13.27;;
9188;SDS011;34313;50.780;6.084;2023-04-16T04:04:00;22.13;;;13.57;;
9188;SDS011;34313;50.780;6.084;2023-04-16T04:06:25;16.27;;;12.23;;
9188;SDS011;34313;50.780;6.084;2023-04-16T04:08:51;22.80;;;13.00;;
9188;SDS011;34313;50.780;6.084;2023-04-16T04:11:17;19.23;;;11.87;;
9188;SDS011;34313;50.780;6.084;2023-04-16T04:13:42;16.40;;;12.40;;
9188;SDS011;34313;50.780;6.084;2023-04-16T04:16:07;17.97;;;12.23;;
9188;SDS011;34313;50.780;6.084;2023-04-16T04:18:33;19.47;;;13.13;;
9188;SDS011;34313;50.780;6.084;2023-04-16T04:20:58;17.10;;;13.20;;
9188;SDS011;34313;50.780;6.084;2023-04-16T04:23:23;25.13;;;13.43;;
9188;SDS011;34313;50.780;6.084;2023-04-16T04:25:48;21.93;;;13.20;;
9188;SDS011;34313;50.780;6.084;2023-04-16T04:28:14;18.87;;;12.53;;
9188;SDS011;34313;50.780;6.084;2023-04-16T04:30:40;19.90;;;13.97;;
9188;SDS011;34313;50.780;6.084;2023-04-16T04:33:05;16.93;;;12.60;;
9188;SDS011;34313;50.780;6.084;2023-04-16T04:35:31;16.93;;;12.17;;
9188;SDS011;34313;50.780;6.084;2023-04-16T04:37:56;19.30;;;13.70;;
9188;SDS011;34313;50.780;6.084;2023-04-16T04:40:22;16.20;;;12.37;;
9188;SDS011;34313;50.780;6.084;2023-04-16T04:42:47;18.70;;;13.53;;
9188;SDS011;34313;50.780;6.084;2023-04-16T04:45:13;19.03;;;13.53;;
9188;SDS011;34313;50.780;6.084;2023-04-16T04:47:38;15.80;;;12.67;;
9188;SDS011;34313;50.780;6.084;2023-04-16T04:50:03;18.73;;;12.23;;
9188;SDS011;34313;50.780;6.084;2023-04-16T04:52:29;15.73;;;11.40;;
9188;SDS011;34313;50.780;6.084;2023-04-16T04:54:54;16.70;;;11.80;;
9188;SDS011;34313;50.780;6.084;2023-04-16T04:57:20;15.50;;;12.03;;
9188;SDS011;34313;50.780;6.084;2023-04-16T04:59:45;16.17;;;12.03;;
9188;SDS011;34313;50.780;6.084;2023-04-16T05:02:10;19.60;;;12.30;;
9188;SDS011;34313;50.780;6.084;2023-04-16T05:04:36;13.07;;;11.20;;
9188;SDS011;34313;50.780;6.084;2023-04-16T05:07:01;20.70;;;12.57;;
9188;SDS011;34313;50.780;6.084;2023-04-16T05:09:27;15.80;;;10.87;;
9188;SDS011;34313;50.780;6.084;2023-04-16T05:11:52;15.47;;;11.60;;
9188;SDS011;34313;50.780;6.084;2023-04-16T05:14:17;18.10;;;11.33;;
9188;SDS011;34313;50.780;6.084;2023-04-16T05:16:43;18.10;;;12.40;;
9188;SDS011;34313;50.780;6.084;2023-04-16T05:19:08;21.70;;;12.90;;
9188;SDS011;34313;50.780;6.084;2023-04-16T05:21:33;13.93;;;11.13;;
9188;SDS011;34313;50.780;6.084;2023-04-16T05:23:59;20.17;;;12.80;;
9188;SDS011;34313;50.780;6.084;2023-04-16T05:26:24;17.70;;;12.20;;
9188;SDS011;34313;50.780;6.084;2023-04-16T05:28:50;16.67;;;13.50;;
9188;SDS011;34313;50.780;6.084;2023-04-16T05:31:15;16.47;;;11.23;;
9188;SDS011;34313;50.780;6.084;2023-04-16T05:33:40;15.87;;;12.10;;
9188;SDS011;34313;50.780;6.084;2023-04-16T05:36:05;12.40;;;11.10;;
9188;SDS011;34313;50.780;6.084;2023-04-16T05:38:31;15.80;;;11.60;;
9188;SDS011;34313;50.780;6.084;2023-04-16T05:40:56;19.33;;;11.30;;
9188;SDS011;34313;50.780;6.084;2023-04-16T05:43:22;16.87;;;11.97;;
9188;SDS011;34313;50.780;6.084;2023-04-16T05:45:47;12.87;;;10.90;;
9188;SDS011;34313;50.780;6.084;2023-04-16T05:48:13;16.17;;;10.60;;
9188;SDS011;34313;50.780;6.084;2023-04-16T05:50:38;13.27;;;10.93;;
9188;SDS011;34313;50.780;6.084;2023-04-16T05:53:07;12.37;;;10.30;;
9188;SDS011;34313;50.780;6.084;2023-04-16T05:55:33;13.37;;;10.73;;
9188;SDS011;34313;50.780;6.084;2023-04-16T05:58:00;15.87;;;11.37;;
9188;SDS011;34313;50.780;6.084;2023-04-16T06:00:28;15.63;;;10.93;;
9188;SDS011;34313;50.780;6.084;2023-04-16T06:02:53;13.20;;;10.37;;
9188;SDS011;34313;50.780;6.084;2023-04-16T06:05:18;13.93;;;10.63;;
9188;SDS011;34313;50.780;6.084;2023-04-16T06:07:44;15.47;;;11.37;;
9188;SDS011;34313;50.780;6.084;2023-04-16T06:10:09;13.07;;;10.17;;
9188;SDS011;34313;50.780;6.084;2023-04-16T06:12:35;13.90;;;10.50;;
9188;SDS011;34313;50.780;6.084;2023-04-16T06:15:00;13.50;;;10.70;;
9188;SDS011;34313;50.780;6.084;2023-04-16T06:17:25;15.03;;;10.67;;
9188;SDS011;34313;50.780;6.084;2023-04-16T06:19:51;15.83;;;9.93;;
9188;SDS011;34313;50.780;6.084;2023-04-16T06:22:16;12.57;;;9.67;;
9188;SDS011;34313;50.780;6.084;2023-04-16T06:24:41;14.80;;;9.80;;
9188;SDS011;34313;50.780;6.084;2023-04-16T06:27:07;13.47;;;10.40;;
9188;SDS011;34313;50.780;6.084;2023-04-16T06:29:32;14.80;;;10.47;;
9188;SDS011;34313;50.780;6.084;2023-04-16T06:31:57;12.27;;;9.23;;
9188;SDS011;34313;50.780;6.084;2023-04-16T06:34:23;13.13;;;10.10;;
9188;SDS011;34313;50.780;6.084;2023-04-16T06:36:48;12.33;;;9.77;;
9188;SDS011;34313;50.780;6.084;2023-04-16T06:39:13;12.50;;;9.73;;
9188;SDS011;34313;50.780;6.084;2023-04-16T06:41:39;11.63;;;9.23;;
9188;SDS011;34313;50.780;6.084;2023-04-16T06:44:04;14.03;;;9.83;;
9188;SDS011;34313;50.780;6.084;2023-04-16T06:46:30;14.40;;;9.97;;
9188;SDS011;34313;50.780;6.084;2023-04-16T06:48:55;10.80;;;7.90;;
9188;SDS011;34313;50.780;6.084;2023-04-16T06:51:21;16.00;;;9.13;;
9188;SDS011;34313;50.780;6.084;2023-04-16T06:53:46;14.33;;;9.27;;
9188;SDS011;34313;50.780;6.084;2023-04-16T06:56:12;11.20;;;8.17;;
9188;SDS011;34313;50.780;6.084;2023-04-16T06:58:37;11.40;;;8.03;;
9188;SDS011;34313;50.780;6.084;2023-04-16T07:01:03;8.60;;;7.17;;
9188;SDS011;34313;50.780;6.084;2023-04-16T07:03:28;9.93;;;7.33;;
9188;SDS011;34313;50.780;6.084;2023-04-16T07:05:55;12.00;;;8.67;;
9188;SDS011;34313;50.780;6.084;2023-04-16T07:08:20;13.77;;;8.67;;
9188;SDS011;34313;50.780;6.084;2023-04-16T07:10:45;12.17;;;7.60;;
9188;SDS011;34313;50.780;6.084;2023-04-16T07:13:11;9.27;;;7.23;;
9188;SDS011;34313;50.780;6.084;2023-04-16T07:15:37;14.17;;;8.27;;
9188;SDS011;34313;50.780;6.084;2023-04-16T07:18:02;13.20;;;8.33;;
9188;SDS011;34313;50.780;6.084;2023-04-16T07:20:27;11.03;;;8.17;;
9188;SDS011;34313;50.780;6.084;2023-04-16T07:22:53;13.93;;;8.60;;
9188;SDS011;34313;50.780;6.084;2023-04-16T07:25:18;9.97;;;8.17;;
9188;SDS011;34313;50.780;6.084;2023-04-16T07:27:43;13.27;;;8.30;;
9188;SDS011;34313;50.780;6.084;2023-04-16T07:30:09;11.50;;;8.70;;
9188;SDS011;34313;50.780;6.084;2023-04-16T07:32:35;12.90;;;8.50;;
9188;SDS011;34313;50.780;6.084;2023-04-16T07:35:00;10.90;;;7.47;;
9188;SDS011;34313;50.780;6.084;2023-04-16T07:37:25;11.03;;;8.23;;
9188;SDS011;34313;50.780;6.084;2023-04-16T07:39:51;12.03;;;9.03;;
9188;SDS011;34313;50.780;6.084;2023-04-16T07:42:16;13.40;;;9.40;;
9188;SDS011;34313;50.780;6.084;2023-04-16T07:44:42;9.37;;;7.97;;
9188;SDS011;34313;50.780;6.084;2023-04-16T07:47:08;11.53;;;8.43;;
9188;SDS011;34313;50.780;6.084;2023-04-16T07:49:33;11.07;;;8.73;;
9188;SDS011;34313;50.780;6.084;2023-04-16T07:51:58;12.70;;;9.87;;
9188;SDS011;34313;50.780;6.084;2023-04-16T07:54:24;13.77;;;9.30;;
9188;SDS011;34313;50.780;6.084;2023-04-16T07:56:49;13.80;;;9.17;;
9188;SDS011;34313;50.780;6.084;2023-04-16T07:59:14;11.77;;;8.80;;
9188;SDS011;34313;50.780;6.084;2023-04-16T08:01:40;12.20;;;8.80;;
9188;SDS011;34313;50.780;6.084;2023-04-16T08:04:05;11.50;;;7.90;;
9188;SDS011;34313;50.780;6.084;2023-04-16T08:06:30;13.53;;;8.57;;
9188;SDS011;34313;50.780;6.084;2023-04-16T08:08:56;12.70;;;9.13;;
9188;SDS011;34313;50.780;6.084;2023-04-16T08:11:21;11.90;;;9.27;;
9188;SDS011;34313;50.780;6.084;2023-04-16T08:13:47;14.43;;;10.07;;
9188;SDS011;34313;50.780;6.084;2023-04-16T08:16:13;9.87;;;8.00;;
9188;SDS011;34313;50.780;6.084;2023-04-16T08:18:39;12.23;;;8.70;;
9188;SDS011;34313;50.780;6.084;2023-04-16T08:21:04;12.20;;;8.80;;
9188;SDS011;34313;50.780;6.084;2023-04-16T08:23:30;12.10;;;8.93;;
9188;SDS011;34313;50.780;6.084;2023-04-16T08:25:55;12.20;;;8.27;;
9188;SDS011;34313;50.780;6.084;2023-04-16T08:28:20;12.00;;;8.43;;
9188;SDS011;34313;50.780;6.084;2023-04-16T08:30:46;10.13;;;8.03;;
9188;SDS011;34313;50.780;6.084;2023-04-16T08:33:11;12.07;;;8.90;;
9188;SDS011;34313;50.780;6.084;2023-04-16T08:35:38;10.77;;;8.23;;
9188;SDS011;34313;50.780;6.084;2023-04-16T08:38:04;10.90;;;8.70;;
9188;SDS011;34313;50.780;6.084;2023-04-16T08:40:31;12.53;;;8.40;;
9188;SDS011;34313;50.780;6.084;2023-04-16T08:42:59;12.97;;;8.17;;
9188;SDS011;34313;50.780;6.084;2023-04-16T08:45:26;9.03;;;7.03;;
9188;SDS011;34313;50.780;6.084;2023-04-16T08:47:52;9.00;;;7.20;;
9188;SDS011;34313;50.780;6.084;2023-04-16T08:50:22;11.23;;;7.03;;
9188;SDS011;34313;50.780;6.084;2023-04-16T08:52:50;9.93;;;7.10;;
9188;SDS011;34313;50.780;6.084;2023-04-16T08:55:59;12.30;;;7.70;;
9188;SDS011;34313;50.780;6.084;2023-04-16T08:58:14;13.33;;;7.67;;
9188;SDS011;34313;50.780;6.084;2023-04-16T09:00:46;10.67;;;6.93;;
9188;SDS011;34313;50.780;6.084;2023-04-16T09:03:12;13.93;;;7.30;;
9188;SDS011;34313;50.780;6.084;2023-04-16T09:05:38;9.57;;;7.05;;
9188;SDS011;34313;50.780;6.084;2023-04-16T09:08:06;9.97;;;6.97;;
9188;SDS011;34313;50.780;6.084;2023-04-16T09:10:32;8.60;;;6.47;;
9188;SDS011;34313;50.780;6.084;2023-04-16T09:12:58;11.00;;;6.50;;
9188;SDS011;34313;50.780;6.084;2023-04-16T09:15:24;8.40;;;6.27;;
9188;SDS011;34313;50.780;6.084;2023-04-16T09:17:50;9.27;;;6.23;;
9188;SDS011;34313;50.780;6.084;2023-04-16T09:20:15;8.70;;;6.73;;
9188;SDS011;34313;50.780;6.084;2023-04-16T09:22:41;9.07;;;6.63;;
9188;SDS011;34313;50.780;6.084;2023-04-16T09:25:08;9.07;;;6.10;;
9188;SDS011;34313;50.780;6.084;2023-04-16T09:27:35;9.00;;;6.80;;
9188;SDS011;34313;50.780;6.084;2023-04-16T09:30:17;9.90;;;7.00;;
9188;SDS011;34313;50.780;6.084;2023-04-16T09:32:52;8.77;;;6.87;;
9188;SDS011;34313;50.780;6.084;2023-04-16T09:35:43;9.90;;;6.43;;
9188;SDS011;34313;50.780;6.084;2023-04-16T09:38:13;8.83;;;5.93;;
9188;SDS011;34313;50.780;6.084;2023-04-16T09:40:38;8.57;;;6.80;;
9188;SDS011;34313;50.780;6.084;2023-04-16T09:43:14;9.57;;;5.97;;
9188;SDS011;34313;50.780;6.084;2023-04-16T09:45:47;9.03;;;6.47;;
9188;SDS011;34313;50.780;6.084;2023-04-16T09:48:14;8.73;;;6.33;;
9188;SDS011;34313;50.780;6.084;2023-04-16T09:50:45;6.47;;;5.30;;
9188;SDS011;34313;50.780;6.084;2023-04-16T09:53:14;6.67;;;5.13;;
9188;SDS011;34313;50.780;6.084;2023-04-16T09:55:49;6.93;;;5.40;;
9188;SDS011;34313;50.780;6.084;2023-04-16T09:58:17;8.60;;;5.90;;
9188;SDS011;34313;50.780;6.084;2023-04-16T10:00:43;6.80;;;5.77;;
9188;SDS011;34313;50.780;6.084;2023-04-16T10:03:09;9.50;;;6.63;;
9188;SDS011;34313;50.780;6.084;2023-04-16T10:05:35;12.13;;;7.47;;
9188;SDS011;34313;50.780;6.084;2023-04-16T10:08:00;10.70;;;7.87;;
9188;SDS011;34313;50.780;6.084;2023-04-16T10:10:26;11.70;;;8.37;;
9188;SDS011;34313;50.780;6.084;2023-04-16T10:12:52;11.00;;;7.47;;
9188;SDS011;34313;50.780;6.084;2023-04-16T10:15:19;12.47;;;8.00;;
9188;SDS011;34313;50.780;6.084;2023-04-16T10:17:45;12.40;;;7.70;;
9188;SDS011;34313;50.780;6.084;2023-04-16T10:20:11;13.50;;;7.93;;
9188;SDS011;34313;50.780;6.084;2023-04-16T10:22:38;11.43;;;6.90;;
9188;SDS011;34313;50.780;6.084;2023-04-16T10:25:03;11.00;;;7.20;;
9188;SDS011;34313;50.780;6.084;2023-04-16T10:27:30;10.57;;;7.67;;
9188;SDS011;34313;50.780;6.084;2023-04-16T10:29:56;9.70;;;7.00;;
9188;SDS011;34313;50.780;6.084;2023-04-16T10:32:22;13.00;;;7.70;;
9188;SDS011;34313;50.780;6.084;2023-04-16T10:34:52;10.83;;;8.10;;
9188;SDS011;34313;50.780;6.084;2023-04-16T10:37:18;9.10;;;6.80;;
9188;SDS011;34313;50.780;6.084;2023-04-16T10:39:50;13.23;;;8.10;;
9188;SDS011;34313;50.780;6.084;2023-04-16T10:42:16;8.90;;;6.93;;
9188;SDS011;34313;50.780;6.084;2023-04-16T10:44:41;10.20;;;7.47;;
9188;SDS011;34313;50.780;6.084;2023-04-16T10:47:10;13.83;;;9.10;;
9188;SDS011;34313;50.780;6.084;2023-04-16T10:49:37;13.47;;;9.17;;
9188;SDS011;34313;50.780;6.084;2023-04-16T10:52:09;13.87;;;9.40;;
9188;SDS011;34313;50.780;6.084;2023-04-16T10:54:36;16.90;;;9.93;;
9188;SDS011;34313;50.780;6.084;2023-04-16T10:57:03;17.43;;;10.80;;
9188;SDS011;34313;50.780;6.084;2023-04-16T10:59:31;20.30;;;12.10;;
9188;SDS011;34313;50.780;6.084;2023-04-16T11:01:59;20.27;;;12.17;;
9188;SDS011;34313;50.780;6.084;2023-04-16T11:04:26;21.30;;;12.23;;
9188;SDS011;34313;50.780;6.084;2023-04-16T11:07:00;24.67;;;13.70;;
9188;SDS011;34313;50.780;6.084;2023-04-16T11:09:59;25.60;;;13.80;;
9188;SDS011;34313;50.780;6.084;2023-04-16T11:14:54;23.70;;;12.87;;
9188;SDS011;34313;50.780;6.084;2023-04-16T11:17:26;24.10;;;13.93;;
9188;SDS011;34313;50.780;6.084;2023-04-16T11:20:01;22.20;;;13.33;;
9188;SDS011;34313;50.780;6.084;2023-04-16T11:22:27;21.67;;;13.57;;
9188;SDS011;34313;50.780;6.084;2023-04-16T11:24:53;23.63;;;14.23;;
9188;SDS011;34313;50.780;6.084;2023-04-16T11:27:21;20.80;;;13.87;;
9188;SDS011;34313;50.780;6.084;2023-04-16T11:29:55;25.27;;;14.37;;
9188;SDS011;34313;50.780;6.084;2023-04-16T11:32:32;21.50;;;13.50;;
9188;SDS011;34313;50.780;6.084;2023-04-16T11:34:59;26.27;;;14.67;;
9188;SDS011;34313;50.780;6.084;2023-04-16T11:37:34;22.47;;;13.80;;
9188;SDS011;34313;50.780;6.084;2023-04-16T11:40:01;22.40;;;14.80;;
9188;SDS011;34313;50.780;6.084;2023-04-16T11:42:31;25.33;;;16.53;;
9188;SDS011;34313;50.780;6.084;2023-04-16T11:44:57;26.10;;;16.23;;
9188;SDS011;34313;50.780;6.084;2023-04-16T11:47:27;24.50;;;15.47;;
9188;SDS011;34313;50.780;6.084;2023-04-16T11:49:54;26.97;;;15.93;;
9188;SDS011;34313;50.780;6.084;2023-04-16T11:52:30;30.10;;;17.20;;
9188;SDS011;34313;50.780;6.084;2023-04-16T11:54:57;27.80;;;16.90;;
9188;SDS011;34313;50.780;6.084;2023-04-16T11:57:26;32.30;;;17.63;;
9188;SDS011;34313;50.780;6.084;2023-04-16T11:59:53;26.80;;;17.00;;
9188;SDS011;34313;50.780;6.084;2023-04-16T12:05:34;20.60;;;12.93;;
9188;SDS011;34313;50.780;6.084;2023-04-16T12:08:03;25.97;;;15.33;;
9188;SDS011;34313;50.780;6.084;2023-04-16T12:10:31;25.30;;;15.50;;
9188;SDS011;34313;50.780;6.084;2023-04-16T12:13:11;31.63;;;16.70;;
9188;SDS011;34313;50.780;6.084;2023-04-16T12:18:14;21.90;;;14.10;;
9188;SDS011;34313;50.780;6.084;2023-04-16T12:20:40;21.40;;;14.97;;
9188;SDS011;34313;50.780;6.084;2023-04-16T12:23:06;22.90;;;14.90;;
9188;SDS011;34313;50.780;6.084;2023-04-16T12:25:35;20.07;;;13.43;;
9188;SDS011;34313;50.780;6.084;2023-04-16T12:28:00;22.73;;;13.67;;
9188;SDS011;34313;50.780;6.084;2023-04-16T12:30:27;24.63;;;15.20;;
9188;SDS011;34313;50.780;6.084;2023-04-16T12:33:13;24.77;;;14.67;;
9188;SDS011;34313;50.780;6.084;2023-04-16T12:35:40;21.67;;;14.53;;
9188;SDS011;34313;50.780;6.084;2023-04-16T12:38:07;23.50;;;14.77;;
9188;SDS011;34313;50.780;6.084;2023-04-16T12:40:33;23.17;;;15.00;;
9188;SDS011;34313;50.780;6.084;2023-04-16T12:42:59;22.43;;;14.53;;
9188;SDS011;34313;50.780;6.084;2023-04-16T12:45:25;21.23;;;14.43;;
9188;SDS011;34313;50.780;6.084;2023-04-16T12:47:50;26.10;;;15.93;;
9188;SDS011;34313;50.780;6.084;2023-04-16T12:50:16;31.93;;;17.33;;
9188;SDS011;34313;50.780;6.084;2023-04-16T12:52:42;25.40;;;15.70;;
9188;SDS011;34313;50.780;6.084;2023-04-16T12:55:08;27.50;;;16.10;;
9188;SDS011;34313;50.780;6.084;2023-04-16T12:57:33;28.60;;;16.13;;
9188;SDS011;34313;50.780;6.084;2023-04-16T12:59:59;25.37;;;16.10;;
9188;SDS011;34313;50.780;6.084;2023-04-16T13:02:25;25.53;;;17.20;;
9188;SDS011;34313;50.780;6.084;2023-04-16T13:04:51;21.83;;;14.50;;
9188;SDS011;34313;50.780;6.084;2023-04-16T13:07:17;23.93;;;15.50;;
9188;SDS011;34313;50.780;6.084;2023-04-16T13:09:43;21.50;;;16.20;;
9188;SDS011;34313;50.780;6.084;2023-04-16T13:12:09;26.50;;;16.00;;
9188;SDS011;34313;50.780;6.084;2023-04-16T13:14:34;27.80;;;16.97;;
9188;SDS011;34313;50.780;6.084;2023-04-16T13:17:00;26.37;;;16.00;;
9188;SDS011;34313;50.780;6.084;2023-04-16T13:19:25;28.70;;;16.07;;
9188;SDS011;34313;50.780;6.084;2023-04-16T13:21:51;23.40;;;15.23;;
9188;SDS011;34313;50.780;6.084;2023-04-16T13:24:16;23.20;;;15.70;;
9188;SDS011;34313;50.780;6.084;2023-04-16T13:26:42;25.70;;;15.77;;
9188;SDS011;34313;50.780;6.084;2023-04-16T13:29:07;27.23;;;15.77;;
9188;SDS011;34313;50.780;6.084;2023-04-16T13:31:33;23.87;;;15.53;;
9188;SDS011;34313;50.780;6.084;2023-04-16T13:33:59;27.77;;;16.70;;
9188;SDS011;34313;50.780;6.084;2023-04-16T13:36:24;20.90;;;15.30;;
9188;SDS011;34313;50.780;6.084;2023-04-16T13:38:51;25.33;;;16.93;;
9188;SDS011;34313;50.780;6.084;2023-04-16T13:41:16;25.87;;;15.77;;
9188;SDS011;34313;50.780;6.084;2023-04-16T13:43:41;22.40;;;14.97;;
9188;SDS011;34313;50.780;6.084;2023-04-16T13:46:07;29.40;;;15.67;;
9188;SDS011;34313;50.780;6.084;2023-04-16T13:48:32;24.97;;;16.07;;
9188;SDS011;34313;50.780;6.084;2023-04-16T13:50:57;27.27;;;16.23;;
9188;SDS011;34313;50.780;6.084;2023-04-16T13:53:23;28.43;;;15.73;;
9188;SDS011;34313;50.780;6.084;2023-04-16T13:55:48;25.27;;;15.93;;
9188;SDS011;34313;50.780;6.084;2023-04-16T13:58:14;22.13;;;15.27;;
9188;SDS011;34313;50.780;6.084;2023-04-16T14:00:39;23.30;;;15.57;;
9188;SDS011;34313;50.780;6.084;2023-04-16T14:03:06;27.07;;;16.90;;
9188;SDS011;34313;50.780;6.084;2023-04-16T14:05:31;27.50;;;15.73;;
9188;SDS011;34313;50.780;6.084;2023-04-16T14:07:57;25.03;;;14.63;;
9188;SDS011;34313;50.780;6.084;2023-04-16T14:10:22;26.00;;;17.40;;
9188;SDS011;34313;50.780;6.084;2023-04-16T14:12:47;25.30;;;16.43;;
9188;SDS011;34313;50.780;6.084;2023-04-16T14:15:13;25.33;;;17.10;;
9188;SDS011;34313;50.780;6.084;2023-04-16T14:17:39;25.07;;;15.97;;
9188;SDS011;34313;50.780;6.084;2023-04-16T14:20:08;30.20;;;15.90;;
9188;SDS011;34313;50.780;6.084;2023-04-16T14:22:34;28.03;;;17.40;;
9188;SDS011;34313;50.780;6.084;2023-04-16T14:25:00;30.13;;;16.50;;
9188;SDS011;34313;50.780;6.084;2023-04-16T14:27:25;24.93;;;16.40;;
9188;SDS011;34313;50.780;6.084;2023-04-16T14:29:52;27.50;;;15.13;;
9188;SDS011;34313;50.780;6.084;2023-04-16T14:32:18;24.03;;;15.53;;
9188;SDS011;34313;50.780;6.084;2023-04-16T14:34:43;27.03;;;16.13;;
9188;SDS011;34313;50.780;6.084;2023-04-16T14:37:08;26.20;;;15.10;;
9188;SDS011;34313;50.780;6.084;2023-04-16T14:39:33;24.83;;;16.63;;
9188;SDS011;34313;50.780;6.084;2023-04-16T14:42:00;25.63;;;16.50;;
9188;SDS011;34313;50.780;6.084;2023-04-16T14:44:25;23.90;;;15.70;;
9188;SDS011;34313;50.780;6.084;2023-04-16T14:46:51;23.43;;;15.70;;